createdAt,value
2022-08-22T00:00:21.010Z,100543.13
2022-08-22T00:02:45.362Z,100525.81
2022-08-22T00:02:54.492Z,100534.50
2022-08-22T00:02:58.022Z,100542.09
2022-08-22T00:03:02.492Z,100538.09
2022-08-22T00:03:15.977Z,100546.75
2022-08-22T00:05:17.446Z,100540.63
2022-08-22T00:07:37.842Z,100541.06
2022-08-22T00:10:01.732Z,100541.63
2022-08-22T00:12:24.177Z,100535.25
2022-08-22T00:14:50.001Z,100545.16
2022-08-22T00:17:22.289Z,100543.13
2022-08-22T00:19:56.072Z,100552.25
2022-08-22T00:22:08.729Z,100546.13
2022-08-22T00:24:19.562Z,100551.84
2022-08-22T00:26:31.796Z,100556.41
2022-08-22T00:29:00.416Z,100548.56
2022-08-22T00:31:35.673Z,100546.03
2022-08-22T00:34:02.086Z,100558.50
2022-08-22T00:36:13.918Z,100554.53
2022-08-22T00:38:27.586Z,100554.41
2022-08-22T00:40:44.389Z,100560.22
2022-08-22T00:43:04.286Z,100559.56
2022-08-22T00:45:26.054Z,100557.22
2022-08-22T00:47:45.252Z,100560.94
2022-08-22T00:50:07.047Z,100557.44
2022-08-22T00:52:38.505Z,100561.38
2022-08-22T00:55:13.731Z,100562.25
2022-08-22T00:57:40.283Z,100573.41
2022-08-22T01:00:03.452Z,100574.00
2022-08-22T01:02:23.818Z,100567.84
2022-08-22T01:04:50.163Z,100574.47
2022-08-22T01:07:18.047Z,100570.75
2022-08-22T01:09:58.933Z,100572.63
2022-08-22T01:12:15.471Z,100573.44
2022-08-22T01:14:35.666Z,100575.53
2022-08-22T01:16:55.364Z,100568.31
2022-08-22T01:19:34.734Z,100570.19
2022-08-22T01:22:00.566Z,100572.47
2022-08-22T01:24:08.199Z,100573.28
2022-08-22T01:26:42.695Z,100571.88
2022-08-22T01:29:01.438Z,100577.84
2022-08-22T01:31:38.339Z,100578.03
2022-08-22T01:34:04.572Z,100568.72
2022-08-22T01:36:27.748Z,100570.81
2022-08-22T01:38:54.773Z,100566.03
2022-08-22T01:41:31.488Z,100568.72
2022-08-22T01:44:14.328Z,100570.06
2022-08-22T01:46:37.861Z,100572.09
2022-08-22T01:48:42.404Z,100572.50
2022-08-22T01:50:53.435Z,100570.78
2022-08-22T01:53:01.087Z,100568.72
2022-08-22T01:55:13.866Z,100569.78
2022-08-22T01:57:17.228Z,100567.31
2022-08-22T01:59:34.289Z,100557.06
2022-08-22T02:01:46.681Z,100556.66
2022-08-22T02:04:14.679Z,100568.22
2022-08-22T02:06:23.133Z,100562.44
2022-08-22T02:08:54.282Z,100578.44
2022-08-22T02:11:09.902Z,100569.09
2022-08-22T02:13:42.264Z,100574.06
2022-08-22T02:15:53.852Z,100575.28
2022-08-22T02:18:07.863Z,100581.47
2022-08-22T02:20:31.805Z,100586.63
2022-08-22T02:22:37.266Z,100595.78
2022-08-22T02:25:03.355Z,100589.56
2022-08-22T02:27:27.165Z,100591.59
2022-08-22T02:29:48.771Z,100586.63
2022-08-22T02:32:26.121Z,100588.09
2022-08-22T02:34:43.766Z,100582.31
2022-08-22T02:36:58.095Z,100588.94
2022-08-22T02:39:11.924Z,100592.47
2022-08-22T02:41:19.821Z,100591.88
2022-08-22T02:43:36.279Z,100594.97
2022-08-22T02:45:47.065Z,100594.78
2022-08-22T02:48:15.190Z,100593.28
2022-08-22T02:50:23.902Z,100599.31
2022-08-22T02:52:33.782Z,100593.94
2022-08-22T02:54:53.759Z,100598.28
2022-08-22T02:57:06.739Z,100600.00
2022-08-22T02:59:30.032Z,100599.75
2022-08-22T03:01:31.744Z,100605.56
2022-08-22T03:03:39.179Z,100604.56
2022-08-22T03:05:40.930Z,100601.63
2022-08-22T03:07:50.420Z,100602.69
2022-08-22T03:10:13.385Z,100603.94
2022-08-22T03:12:43.493Z,100614.53
2022-08-22T03:14:50.995Z,100612.00
2022-08-22T03:16:57.275Z,100611.56
2022-08-22T03:19:18.924Z,100617.16
2022-08-22T03:21:50.829Z,100615.94
2022-08-22T03:24:00.320Z,100615.75
2022-08-22T03:26:29.127Z,100614.94
2022-08-22T03:28:37.279Z,100613.66
2022-08-22T03:31:13.049Z,100616.41
2022-08-22T03:33:19.497Z,100620.53
2022-08-22T03:35:50.608Z,100606.63
2022-08-22T03:38:11.730Z,100620.53
2022-08-22T03:40:31.479Z,100602.31
2022-08-22T03:43:00.938Z,100616.81
2022-08-22T03:45:08.499Z,100623.00
2022-08-22T03:47:38.250Z,100621.56
2022-08-22T03:49:59.388Z,100625.69
2022-08-22T03:52:39.289Z,100612.22
2022-08-22T03:55:21.021Z,100623.81
2022-08-22T03:57:51.871Z,100621.53
2022-08-22T04:00:37.956Z,100612.88
2022-08-22T04:02:55.775Z,100616.00
2022-08-22T04:05:16.317Z,100617.22
2022-08-22T04:07:31.431Z,100627.56
2022-08-22T04:09:52.611Z,100624.03
2022-08-22T04:12:09.526Z,100631.31
2022-08-22T04:14:46.949Z,100633.34
2022-08-22T04:17:15.569Z,100635.84
2022-08-22T04:19:29.837Z,100641.41
2022-08-22T04:21:45.866Z,100636.69
2022-08-22T04:24:14.120Z,100635.41
2022-08-22T04:26:26.701Z,100639.56
2022-08-22T04:28:50.129Z,100640.00
2022-08-22T04:31:09.117Z,100642.28
2022-08-22T04:33:19.130Z,100636.25
2022-08-22T04:35:32.996Z,100645.38
2022-08-22T04:37:49.781Z,100651.34
2022-08-22T04:39:53.631Z,100651.16
2022-08-22T04:42:31.797Z,100649.94
2022-08-22T04:45:00.334Z,100647.84
2022-08-22T04:47:23.017Z,100653.63
2022-08-22T04:49:43.244Z,100658.41
2022-08-22T04:51:57.785Z,100661.91
2022-08-22T04:54:18.131Z,100666.06
2022-08-22T04:56:48.527Z,100660.25
2022-08-22T04:59:03.710Z,100664.63
2022-08-22T05:01:23.614Z,100663.34
2022-08-22T05:03:29.156Z,100667.09
2022-08-22T05:05:38.191Z,100664.16
2022-08-22T05:07:52.698Z,100667.09
2022-08-22T05:10:09.263Z,100665.81
2022-08-22T05:12:20.278Z,100668.50
2022-08-22T05:14:32.449Z,100672.22
2022-08-22T05:16:40.052Z,100672.63
2022-08-22T05:18:50.622Z,100671.03
2022-08-22T05:20:53.976Z,100678.69
2022-08-22T05:23:01.786Z,100667.72
2022-08-22T05:25:12.985Z,100677.44
2022-08-22T05:27:20.500Z,100676.81
2022-08-22T05:29:27.536Z,100679.75
2022-08-22T05:31:35.430Z,100674.78
2022-08-22T05:33:41.070Z,100675.19
2022-08-22T05:35:50.213Z,100682.00
2022-08-22T05:37:56.353Z,100687.56
2022-08-22T05:40:00.810Z,100686.94
2022-08-22T05:42:04.004Z,100685.91
2022-08-22T05:44:15.152Z,100683.81
2022-08-22T05:46:34.853Z,100684.03
2022-08-22T05:48:51.306Z,100692.53
2022-08-22T05:50:59.536Z,100697.25
2022-08-22T05:53:10.290Z,100690.03
2022-08-22T05:55:38.721Z,100689.19
2022-08-22T05:57:46.588Z,100694.00
2022-08-22T05:59:53.453Z,100686.72
2022-08-22T06:02:13.938Z,100689.63
2022-08-22T06:04:36.338Z,100689.41
2022-08-22T06:06:51.320Z,100698.69
2022-08-22T06:09:01.473Z,100690.41
2022-08-22T06:11:15.671Z,100696.19
2022-08-22T06:13:34.403Z,100702.06
2022-08-22T06:15:58.359Z,100701.19
2022-08-22T06:18:05.611Z,100709.94
2022-08-22T06:20:09.805Z,100700.88
2022-08-22T06:22:18.734Z,100709.13
2022-08-22T06:24:25.401Z,100700.66
2022-08-22T06:26:35.990Z,100704.22
2022-08-22T06:28:55.051Z,100713.47
2022-08-22T06:30:59.265Z,100706.28
2022-08-22T06:33:05.867Z,100689.50
2022-08-22T06:35:15.576Z,100708.84
2022-08-22T06:37:25.432Z,100709.38
2022-08-22T06:39:35.621Z,100707.75
2022-08-22T06:41:52.674Z,100710.25
2022-08-22T06:43:57.487Z,100712.69
2022-08-22T06:46:00.774Z,100712.16
2022-08-22T06:48:05.724Z,100714.22
2022-08-22T06:50:21.194Z,100719.59
2022-08-22T06:52:26.957Z,100722.03
2022-08-22T06:54:39.637Z,100722.88
2022-08-22T06:56:44.494Z,100716.91
2022-08-22T06:58:52.163Z,100728.69
2022-08-22T07:01:04.013Z,100720.97
2022-08-22T07:03:25.909Z,100725.09
2022-08-22T07:05:35.394Z,100727.81
2022-08-22T07:07:37.264Z,100726.34
2022-08-22T07:09:41.541Z,100729.91
2022-08-22T07:11:43.639Z,100729.00
2022-08-22T07:13:56.438Z,100728.72
2022-08-22T07:15:59.661Z,100728.81
2022-08-22T07:18:06.792Z,100722.81
2022-08-22T07:20:31.077Z,100726.81
2022-08-22T07:22:33.992Z,100730.34
2022-08-22T07:24:36.343Z,100731.78
2022-08-22T07:27:30.808Z,100726.06
2022-08-22T07:29:58.640Z,100735.44
2022-08-22T07:32:03.038Z,100741.06
2022-08-22T07:34:34.277Z,100741.69
2022-08-22T07:37:06.153Z,100736.03
2022-08-22T07:39:44.337Z,100746.78
2022-08-22T07:42:08.677Z,100739.13
2022-08-22T07:44:21.681Z,100744.25
2022-08-22T07:46:34.168Z,100763.22
2022-08-22T07:49:07.703Z,100750.00
2022-08-22T07:51:16.131Z,100749.38
2022-08-22T07:53:30.237Z,100761.47
2022-08-22T07:55:32.621Z,100762.31
2022-08-22T07:57:41.555Z,100758.88
2022-08-22T07:59:48.366Z,100752.34
2022-08-22T08:01:57.099Z,100754.31
2022-08-22T08:04:02.613Z,100759.41
2022-08-22T08:06:05.157Z,100761.97
2022-08-22T08:08:15.963Z,100753.19
2022-08-22T08:10:25.761Z,100762.31
2022-08-22T08:12:40.558Z,100758.25
2022-08-22T08:14:46.284Z,100756.16
2022-08-22T08:17:03.103Z,100757.53
2022-08-22T08:19:06.283Z,100759.97
2022-08-22T08:21:15.031Z,100753.91
2022-08-22T08:23:17.222Z,100753.91
2022-08-22T08:25:31.135Z,100753.38
2022-08-22T08:27:38.295Z,100768.72
2022-08-22T08:29:48.981Z,100758.84
2022-08-22T08:31:50.981Z,100761.38
2022-08-22T08:34:02.003Z,100751.66
2022-08-22T08:36:41.143Z,100754.38
2022-08-22T08:38:55.630Z,100736.50
2022-08-22T08:41:22.496Z,100751.25
2022-08-22T08:43:49.110Z,100751.31
2022-08-22T08:46:22.470Z,100748.97
2022-08-22T08:48:42.958Z,100741.81
2022-08-22T08:51:08.224Z,100739.97
2022-08-22T08:53:48.737Z,100751.91
2022-08-22T08:56:17.808Z,100751.09
2022-08-22T08:58:36.178Z,100750.44
2022-08-22T09:00:42.983Z,100744.59
2022-08-22T09:03:12.322Z,100747.03
2022-08-22T09:05:29.655Z,100750.25
2022-08-22T09:07:40.194Z,100745.38
2022-08-22T09:09:52.311Z,100748.13
2022-08-22T09:12:21.412Z,100740.75
2022-08-22T09:14:49.989Z,100744.53
2022-08-22T09:17:00.628Z,100751.72
2022-08-22T09:19:02.352Z,100741.97
2022-08-22T09:21:10.150Z,100745.16
2022-08-22T09:23:48.155Z,100742.81
2022-08-22T09:25:59.461Z,100742.63
2022-08-22T09:28:28.345Z,100743.56
2022-08-22T09:31:32.626Z,100745.88
2022-08-22T09:33:54.144Z,100748.16
2022-08-22T09:36:17.416Z,100741.44
2022-08-22T09:38:33.332Z,100745.09
2022-08-22T09:40:47.889Z,100750.06
2022-08-22T09:43:00.883Z,100746.16
2022-08-22T09:45:11.494Z,100740.72
2022-08-22T09:47:47.146Z,100735.78
2022-08-22T09:50:02.785Z,100733.41
2022-08-22T09:52:33.085Z,100732.00
2022-08-22T09:54:36.758Z,100739.91
2022-08-22T09:56:55.853Z,100741.56
2022-08-22T09:59:05.115Z,100741.34
2022-08-22T10:01:23.929Z,100736.50
2022-08-22T10:03:28.707Z,100734.97
2022-08-22T10:05:44.342Z,100740.84
2022-08-22T10:08:11.980Z,100740.13
2022-08-22T10:10:21.377Z,100739.44
2022-08-22T10:12:48.366Z,100745.09
2022-08-22T10:15:10.253Z,100743.00
2022-08-22T10:17:25.699Z,100751.00
2022-08-22T10:19:50.412Z,100733.03
2022-08-22T10:22:30.183Z,100747.81
2022-08-22T10:24:51.165Z,100745.13
2022-08-22T10:26:56.486Z,100748.88
2022-08-22T10:29:16.961Z,100742.28
2022-08-22T10:31:25.478Z,100744.94
2022-08-22T10:33:36.462Z,100745.41
2022-08-22T10:35:44.479Z,100744.84
2022-08-22T10:37:57.212Z,100739.28
2022-08-22T10:40:05.345Z,100732.66
2022-08-22T10:42:25.514Z,100734.69
2022-08-22T10:44:47.718Z,100737.03
2022-08-22T10:46:54.914Z,100734.16
2022-08-22T10:49:05.774Z,100724.22
2022-08-22T10:51:40.998Z,100724.94
2022-08-22T10:54:07.901Z,100738.53
2022-08-22T10:56:27.669Z,100736.75
2022-08-22T10:58:36.728Z,100738.88
2022-08-22T11:00:53.804Z,100740.47
2022-08-22T11:03:26.427Z,100733.22
2022-08-22T11:05:42.027Z,100729.19
2022-08-22T11:07:56.902Z,100727.53
2022-08-22T11:10:09.340Z,100735.69
2022-08-22T11:12:34.885Z,100727.88
2022-08-22T11:15:04.761Z,100729.38
2022-08-22T11:17:40.661Z,100727.88
2022-08-22T11:20:16.998Z,100724.09
2022-08-22T11:22:24.721Z,100727.03
2022-08-22T11:24:34.848Z,100728.56
2022-08-22T11:26:47.013Z,100730.13
2022-08-22T11:29:02.792Z,100735.91
2022-08-22T11:31:51.409Z,100745.06
2022-08-22T11:34:10.306Z,100749.81
2022-08-22T11:36:30.874Z,100733.84
2022-08-22T11:39:01.435Z,100729.38
2022-08-22T11:41:13.164Z,100736.56
2022-08-22T11:43:36.155Z,100729.34
2022-08-22T11:45:46.940Z,100738.09
2022-08-22T11:48:27.563Z,100740.34
2022-08-22T11:50:32.302Z,100746.59
2022-08-22T11:53:04.591Z,100736.72
2022-08-22T11:55:15.596Z,100729.84
2022-08-22T11:57:36.328Z,100736.38
2022-08-22T12:00:15.302Z,100730.72
2022-08-22T12:02:40.661Z,100728.28
2022-08-22T12:04:49.350Z,100734.09
2022-08-22T12:07:15.806Z,100724.72
2022-08-22T12:09:45.110Z,100729.88
2022-08-22T12:12:13.950Z,100729.72
2022-08-22T12:14:34.185Z,100719.44
2022-08-22T12:17:28.487Z,100718.91
2022-08-22T12:20:14.977Z,100716.59
2022-08-22T12:22:33.521Z,100715.19
2022-08-22T12:24:53.476Z,100716.13
2022-08-22T12:27:01.560Z,100719.41
2022-08-22T12:29:27.448Z,100713.72
2022-08-22T12:31:38.535Z,100716.47
2022-08-22T12:33:43.263Z,100716.06
2022-08-22T12:35:45.266Z,100715.31
2022-08-22T12:38:28.580Z,100711.03
2022-08-22T12:40:50.353Z,100712.09
2022-08-22T12:43:27.538Z,100707.53
2022-08-22T12:46:31.616Z,100708.13
2022-08-22T12:48:59.640Z,100717.81
2022-08-22T12:51:23.204Z,100714.06
2022-08-22T12:53:58.567Z,100711.59
2022-08-22T12:56:18.586Z,100708.00
2022-08-22T12:58:33.870Z,100705.59
2022-08-22T13:00:39.935Z,100713.28
2022-08-22T13:02:45.180Z,100714.44
2022-08-22T13:04:58.188Z,100711.94
2022-08-22T13:07:34.579Z,100700.28
2022-08-22T13:09:46.188Z,100703.94
2022-08-22T13:11:53.678Z,100704.53
2022-08-22T13:14:02.219Z,100702.88
2022-08-22T13:16:13.886Z,100704.06
2022-08-22T13:18:29.987Z,100714.53
2022-08-22T13:20:39.976Z,100715.03
2022-08-22T13:22:46.037Z,100707.63
2022-08-22T13:25:04.720Z,100712.88
2022-08-22T13:27:15.889Z,100707.97
2022-08-22T13:29:27.470Z,100697.78
2022-08-22T13:31:43.625Z,100701.72
2022-08-22T13:33:46.384Z,100697.06
2022-08-22T13:36:14.336Z,100701.63
2022-08-22T13:38:25.717Z,100694.06
2022-08-22T13:40:31.409Z,100698.50
2022-08-22T13:42:39.995Z,100699.25
2022-08-22T13:44:50.373Z,100694.81
2022-08-22T13:47:13.614Z,100706.69
2022-08-22T13:49:33.307Z,100701.28
2022-08-22T13:52:01.617Z,100706.50
2022-08-22T13:54:40.176Z,100702.75
2022-08-22T13:56:50.825Z,100707.53
2022-08-22T13:59:06.170Z,100703.16
2022-08-22T14:01:28.426Z,100705.69
2022-08-22T14:04:32.254Z,100704.84
2022-08-22T14:06:47.316Z,100703.25
2022-08-22T14:08:50.675Z,100710.88
2022-08-22T14:11:31.441Z,100702.25
2022-08-22T14:13:45.127Z,100701.44
2022-08-22T14:15:48.707Z,100696.16
2022-08-22T14:18:00.551Z,100697.22
2022-08-22T14:20:33.515Z,100702.22
2022-08-22T14:22:39.136Z,100700.31
2022-08-22T14:24:58.023Z,100698.84
2022-08-22T14:27:05.120Z,100703.03
2022-08-22T14:29:14.954Z,100686.53
2022-08-22T14:31:24.054Z,100704.91
2022-08-22T14:33:39.894Z,100694.06
2022-08-22T14:35:52.678Z,100700.09
2022-08-22T14:38:18.034Z,100661.78
2022-08-22T14:40:30.341Z,100695.81
2022-08-22T14:42:49.584Z,100696.31
2022-08-22T14:45:06.538Z,100703.03
2022-08-22T14:47:55.610Z,100702.44
2022-08-22T14:49:49.678Z,100699.84
2022-08-22T14:52:05.537Z,100696.66
2022-08-22T14:54:28.904Z,100704.78
2022-08-22T14:56:32.222Z,100705.03
2022-08-22T14:58:49.707Z,100706.34
2022-08-22T15:00:54.096Z,100706.56
2022-08-22T15:03:33.118Z,100696.41
2022-08-22T15:05:46.203Z,100708.09
2022-08-22T15:07:56.173Z,100695.03
2022-08-22T15:10:33.147Z,100700.56
2022-08-22T15:12:40.718Z,100703.41
2022-08-22T15:14:48.949Z,100702.44
2022-08-22T15:17:01.145Z,100706.00
2022-08-22T15:19:21.071Z,100704.56
2022-08-22T15:21:32.890Z,100697.03
2022-08-22T15:23:45.123Z,100696.09
2022-08-22T15:26:24.363Z,100684.53
2022-08-22T15:28:27.693Z,100688.97
2022-08-22T15:31:03.802Z,100696.56
2022-08-22T15:33:22.514Z,100665.56
2022-08-22T15:35:31.450Z,100688.31
2022-08-22T15:37:53.465Z,100681.72
2022-08-22T15:40:27.544Z,100680.88
2022-08-22T15:42:56.624Z,100682.91
2022-08-22T15:45:01.493Z,100678.41
2022-08-22T15:47:12.097Z,100683.81
2022-08-22T15:49:29.712Z,100682.78
2022-08-22T15:51:38.598Z,100679.13
2022-08-22T15:54:26.900Z,100677.38
2022-08-22T15:56:34.646Z,100668.63
2022-08-22T15:58:37.523Z,100673.81
2022-08-22T16:01:02.650Z,100665.13
2022-08-22T16:03:10.781Z,100635.44
2022-08-22T16:05:12.963Z,100672.53
2022-08-22T16:07:26.735Z,100671.56
2022-08-22T16:09:44.349Z,100676.41
2022-08-22T16:11:55.231Z,100670.28
2022-08-22T16:14:35.703Z,100664.84
2022-08-22T16:17:00.985Z,100666.03
2022-08-22T16:19:02.661Z,100663.91
2022-08-22T16:21:10.765Z,100671.09
2022-08-22T16:23:12.578Z,100661.56
2022-08-22T16:25:16.273Z,100664.59
2022-08-22T16:27:26.105Z,100653.34
2022-08-22T16:29:31.780Z,100661.09
2022-08-22T16:31:59.642Z,100660.63
2022-08-22T16:34:26.721Z,100672.03
2022-08-22T16:36:48.883Z,100673.31
2022-08-22T16:38:53.629Z,100661.34
2022-08-22T16:40:55.624Z,100672.16
2022-08-22T16:43:15.343Z,100680.63
2022-08-22T16:45:17.047Z,100677.66
2022-08-22T16:47:21.766Z,100682.34
2022-08-22T16:49:30.620Z,100681.94
2022-08-22T16:51:32.400Z,100685.94
2022-08-22T16:53:45.760Z,100678.41
2022-08-22T16:56:08.508Z,100679.47
2022-08-22T16:58:57.921Z,100679.50
2022-08-22T17:01:51.061Z,100689.75
2022-08-22T17:04:41.599Z,100684.69
2022-08-22T17:07:07.814Z,100686.44
2022-08-22T17:09:40.549Z,100690.00
2022-08-22T17:11:58.480Z,100688.84
2022-08-22T17:14:00.220Z,100687.75
2022-08-22T17:16:23.935Z,100702.59
2022-08-22T17:19:10.654Z,100704.00
2022-08-22T17:21:38.799Z,100707.44
2022-08-22T17:24:02.052Z,100714.16
2022-08-22T17:26:18.330Z,100712.13
2022-08-22T17:28:35.319Z,100711.19
2022-08-22T17:30:50.889Z,100714.59
2022-08-22T17:33:11.764Z,100720.00
2022-08-22T17:35:36.066Z,100722.56
2022-08-22T17:37:50.673Z,100724.09
2022-08-22T17:40:24.272Z,100715.59
2022-08-22T17:42:51.965Z,100721.16
2022-08-22T17:45:15.431Z,100723.31
2022-08-22T17:47:22.215Z,100734.13
2022-08-22T17:49:33.370Z,100734.34
2022-08-22T17:51:38.094Z,100733.53
2022-08-22T17:53:50.263Z,100727.22
2022-08-22T17:55:54.608Z,100721.00
2022-08-22T17:58:37.957Z,100728.28
2022-08-22T18:00:54.539Z,100734.75
2022-08-22T18:03:08.376Z,100730.22
2022-08-22T18:05:21.984Z,100736.44
2022-08-22T18:07:26.521Z,100742.19
2022-08-22T18:09:39.979Z,100736.47
2022-08-22T18:11:45.851Z,100752.69
2022-08-22T18:14:05.105Z,100748.28
2022-08-22T18:16:19.532Z,100748.94
2022-08-22T18:18:30.377Z,100757.06
2022-08-22T18:20:44.925Z,100759.22
2022-08-22T18:22:52.917Z,100763.50
2022-08-22T18:25:10.954Z,100764.47
2022-08-22T18:27:34.055Z,100758.72
2022-08-22T18:29:49.105Z,100766.66
2022-08-22T18:32:00.136Z,100768.09
2022-08-22T18:34:18.940Z,100766.09
2022-08-22T18:36:33.041Z,100771.28
2022-08-22T18:39:01.587Z,100772.78
2022-08-22T18:41:15.922Z,100778.19
2022-08-22T18:43:20.903Z,100771.72
2022-08-22T18:45:44.490Z,100781.88
2022-08-22T18:47:55.513Z,100777.59
2022-08-22T18:49:57.839Z,100772.94
2022-08-22T18:52:05.411Z,100774.22
2022-08-22T18:54:07.193Z,100772.16
2022-08-22T18:56:18.661Z,100772.94
2022-08-22T18:58:49.398Z,100767.38
2022-08-22T19:01:22.331Z,100771.78
2022-08-22T19:03:51.894Z,100770.81
2022-08-22T19:06:29.276Z,100777.78
2022-08-22T19:08:53.052Z,100772.47
2022-08-22T19:11:01.258Z,100768.84
2022-08-22T19:13:21.296Z,100769.22
2022-08-22T19:15:32.120Z,100765.47
2022-08-22T19:18:03.229Z,100760.81
2022-08-22T19:20:35.285Z,100769.53
2022-08-22T19:22:37.530Z,100751.88
2022-08-22T19:24:58.165Z,100752.25
2022-08-22T19:27:18.746Z,100755.03
2022-08-22T19:29:20.535Z,100754.00
2022-08-22T19:31:24.568Z,100761.66
2022-08-22T19:33:37.557Z,100748.41
2022-08-22T19:37:56.572Z,100757.78
2022-08-22T19:40:01.889Z,100767.06
2022-08-22T19:42:03.945Z,100754.06
2022-08-22T19:44:11.497Z,100770.41
2022-08-22T19:46:13.562Z,100768.34
2022-08-22T19:48:15.827Z,100765.88
2022-08-22T19:50:18.017Z,100768.19
2022-08-22T19:52:53.715Z,100764.72
2022-08-22T19:55:14.126Z,100767.09
2022-08-22T19:57:34.284Z,100766.44
2022-08-22T19:59:50.402Z,100765.88
2022-08-22T20:02:15.645Z,100767.69
2022-08-22T20:04:35.308Z,100774.31
2022-08-22T20:06:52.261Z,100762.34
2022-08-22T20:09:39.040Z,100777.38
2022-08-22T20:11:46.056Z,100774.84
2022-08-22T20:13:48.100Z,100767.13
2022-08-22T20:16:07.223Z,100748.72
2022-08-22T20:18:46.685Z,100765.69
2022-08-22T20:20:36.985Z,100755.84
2022-08-22T20:22:38.669Z,100752.69
2022-08-22T20:24:45.811Z,100754.34
2022-08-22T20:27:12.077Z,100758.06
2022-08-22T20:29:12.652Z,100750.03
2022-08-22T20:31:27.145Z,100734.09
2022-08-22T20:33:34.550Z,100748.38
2022-08-22T20:35:40.871Z,100745.09
2022-08-22T20:38:05.813Z,100759.13
2022-08-22T20:40:55.463Z,100764.50
2022-08-22T20:43:00.637Z,100740.38
2022-08-22T20:45:12.277Z,100748.81
2022-08-22T20:47:21.275Z,100750.50
2022-08-22T20:49:35.756Z,100734.72
2022-08-22T20:51:37.592Z,100759.94
2022-08-22T20:53:39.460Z,100755.78
2022-08-22T20:55:53.173Z,100758.22
2022-08-22T20:57:58.204Z,100717.81
2022-08-22T21:00:23.916Z,100759.44
2022-08-22T21:03:00.394Z,100757.78
2022-08-22T21:05:16.485Z,100752.56
2022-08-22T21:07:28.229Z,100742.88
2022-08-22T21:09:30.150Z,100733.16
2022-08-22T21:11:31.919Z,100736.22
2022-08-22T21:13:37.314Z,100738.34
2022-08-22T21:15:54.949Z,100733.69
2022-08-22T21:17:57.565Z,100730.41
2022-08-22T21:20:17.414Z,100724.66
2022-08-22T21:22:27.319Z,100726.69
2022-08-22T21:24:30.434Z,100712.84
2022-08-22T21:26:39.818Z,100723.97
2022-08-22T21:29:04.650Z,100719.50
2022-08-22T21:31:13.504Z,100714.69
2022-08-22T21:33:23.991Z,100714.91
2022-08-22T21:35:32.388Z,100708.63
2022-08-22T21:37:39.283Z,100706.00
2022-08-22T21:39:46.098Z,100708.88
2022-08-22T21:42:07.906Z,100717.97
2022-08-22T21:44:27.923Z,100719.50
2022-08-22T21:46:29.875Z,100720.31
2022-08-22T21:48:42.527Z,100714.31
2022-08-22T21:50:44.278Z,100712.91
2022-08-22T21:52:55.167Z,100717.63
2022-08-22T21:55:26.509Z,100717.00
2022-08-22T21:57:35.783Z,100723.03
2022-08-22T21:59:52.048Z,100720.09
2022-08-22T22:02:34.169Z,100719.50
2022-08-22T22:04:38.301Z,100736.84
2022-08-22T22:06:40.192Z,100730.00
2022-08-22T22:08:41.984Z,100726.50
2022-08-22T22:10:45.959Z,100720.63
2022-08-22T22:12:49.329Z,100734.06
2022-08-22T22:14:51.477Z,100736.59
2022-08-22T22:16:53.258Z,100729.97
2022-08-22T22:18:55.804Z,100728.00
2022-08-22T22:20:57.989Z,100728.28
2022-08-22T22:22:59.913Z,100729.53
2022-08-22T22:25:01.888Z,100729.13
2022-08-22T22:27:05.459Z,100727.38
2022-08-22T22:29:07.054Z,100739.03
2022-08-22T22:31:10.665Z,100728.75
2022-08-22T22:33:12.820Z,100733.22
2022-08-22T22:35:15.480Z,100728.25
2022-08-22T22:37:17.275Z,100722.91
2022-08-22T22:39:19.180Z,100717.97
2022-08-22T22:41:21.875Z,100721.44
2022-08-22T22:43:23.819Z,100715.63
2022-08-22T22:45:25.715Z,100720.63
2022-08-22T22:47:30.336Z,100707.19
2022-08-22T22:49:33.031Z,100705.16
2022-08-22T22:51:34.942Z,100701.22
2022-08-22T22:53:42.788Z,100696.13
2022-08-22T22:55:45.539Z,100701.06
2022-08-22T22:58:02.107Z,100709.19
2022-08-22T23:00:06.648Z,100703.56
2022-08-22T23:02:12.547Z,100708.38
2022-08-22T23:04:14.296Z,100703.19
2022-08-22T23:06:19.195Z,100698.00
2022-08-22T23:08:20.929Z,100694.44
2022-08-22T23:10:22.844Z,100686.16
2022-08-22T23:12:26.006Z,100693.84
2022-08-22T23:14:27.945Z,100702.97
2022-08-22T23:16:34.000Z,100711.63
2022-08-22T23:18:38.907Z,100711.56
2022-08-22T23:20:40.659Z,100707.47
2022-08-22T23:22:44.711Z,100696.88
2022-08-22T23:24:46.478Z,100705.34
2022-08-22T23:26:48.223Z,100701.31
2022-08-22T23:28:50.121Z,100700.97
2022-08-22T23:30:51.882Z,100700.75
2022-08-22T23:32:53.734Z,100701.78
2022-08-22T23:34:55.780Z,100681.44
2022-08-22T23:37:00.370Z,100698.81
2022-08-22T23:39:03.007Z,100700.47
2022-08-22T23:41:09.797Z,100704.91
2022-08-22T23:43:11.820Z,100699.28
2022-08-22T23:45:13.589Z,100701.53
2022-08-22T23:47:15.899Z,100687.06
2022-08-22T23:49:17.882Z,100704.00
2022-08-22T23:51:22.955Z,100700.66
2022-08-22T23:53:25.091Z,100703.22
2022-08-22T23:55:26.833Z,100697.88
2022-08-22T23:57:29.419Z,100694.78
2022-08-22T23:59:34.220Z,100697.91
